sensor_id;sensor_type;location;lat;lon;timestamp;pressure;altitude;pressure_sealevel;temperature;humidity
10460;BME280;54412;51.206;6.888;2023-03-07T00:01:05;99263.16;;;5.75;77.77
10460;BME280;54412;51.206;6.888;2023-03-07T00:03:31;99256.06;;;5.77;78.12
10460;BME280;54412;51.206;6.888;2023-03-07T00:06:06;99265.75;;;5.75;77.56
10460;BME280;54412;51.206;6.888;2023-03-07T00:08:33;99261.53;;;5.90;77.63
10460;BME280;54412;51.206;6.888;2023-03-07T00:11:06;99262.50;;;5.70;77.86
10460;BME280;54412;51.206;6.888;2023-03-07T00:13:33;99260.69;;;5.89;77.17
10460;BME280;54412;51.206;6.888;2023-03-07T00:16:10;99255.19;;;5.94;77.25
10460;BME280;54412;51.206;6.888;2023-03-07T00:18:36;99250.53;;;5.83;77.39
10460;BME280;54412;51.206;6.888;2023-03-07T00:21:06;99256.13;;;5.76;77.74
10460;BME280;54412;51.206;6.888;2023-03-07T00:23:34;99257.06;;;5.75;77.35
10460;BME280;54412;51.206;6.888;2023-03-07T00:26:10;99263.06;;;5.77;77.39
10460;BME280;54412;51.206;6.888;2023-03-07T00:28:36;99246.06;;;5.85;77.48
10460;BME280;54412;51.206;6.888;2023-03-07T00:31:07;99240.44;;;5.76;77.71
10460;BME280;54412;51.206;6.888;2023-03-07T00:33:33;99242.38;;;5.89;77.63
10460;BME280;54412;51.206;6.888;2023-03-07T00:36:03;99237.56;;;5.65;78.54
10460;BME280;54412;51.206;6.888;2023-03-07T00:38:31;99248.84;;;5.65;78.85
10460;BME280;54412;51.206;6.888;2023-03-07T00:41:05;99240.56;;;5.57;78.93
10460;BME280;54412;51.206;6.888;2023-03-07T00:43:32;99244.25;;;5.53;79.45
10460;BME280;54412;51.206;6.888;2023-03-07T00:45:59;99240.59;;;5.73;78.84
10460;BME280;54412;51.206;6.888;2023-03-07T00:48:26;99239.28;;;5.49;79.72
10460;BME280;54412;51.206;6.888;2023-03-07T00:50:52;99239.19;;;5.50;80.23
10460;BME280;54412;51.206;6.888;2023-03-07T00:53:19;99236.78;;;5.63;80.09
10460;BME280;54412;51.206;6.888;2023-03-07T00:55:57;99226.25;;;5.47;80.22
10460;BME280;54412;51.206;6.888;2023-03-07T00:58:24;99229.16;;;5.75;79.73
10460;BME280;54412;51.206;6.888;2023-03-07T01:00:51;99225.38;;;5.81;79.81
10460;BME280;54412;51.206;6.888;2023-03-07T01:03:18;99226.69;;;6.05;78.60
10460;BME280;54412;51.206;6.888;2023-03-07T01:05:44;99227.53;;;6.05;78.58
10460;BME280;54412;51.206;6.888;2023-03-07T01:08:10;99229.47;;;5.86;79.50
10460;BME280;54412;51.206;6.888;2023-03-07T01:10:36;99225.06;;;5.70;80.52
10460;BME280;54412;51.206;6.888;2023-03-07T01:13:03;99215.97;;;5.77;80.74
10460;BME280;54412;51.206;6.888;2023-03-07T01:15:29;99225.16;;;5.68;80.42
10460;BME280;54412;51.206;6.888;2023-03-07T01:17:55;99216.84;;;5.77;80.61
10460;BME280;54412;51.206;6.888;2023-03-07T01:20:21;99211.34;;;5.82;81.06
10460;BME280;54412;51.206;6.888;2023-03-07T01:22:46;99215.78;;;5.64;81.58
10460;BME280;54412;51.206;6.888;2023-03-07T01:25:12;99217.28;;;5.85;81.19
10460;BME280;54412;51.206;6.888;2023-03-07T01:27:38;99211.34;;;5.82;81.49
10460;BME280;54412;51.206;6.888;2023-03-07T01:30:09;99208.13;;;5.77;81.68
10460;BME280;54412;51.206;6.888;2023-03-07T01:32:34;99208.84;;;5.96;81.38
10460;BME280;54412;51.206;6.888;2023-03-07T01:35:00;99208.81;;;5.80;81.61
10460;BME280;54412;51.206;6.888;2023-03-07T01:37:26;99209.28;;;5.71;82.30
10460;BME280;54412;51.206;6.888;2023-03-07T01:39:52;99205.06;;;5.86;82.35
10460;BME280;54412;51.206;6.888;2023-03-07T01:42:20;99196.31;;;6.02;81.90
10460;BME280;54412;51.206;6.888;2023-03-07T01:46:00;99198.75;;;5.90;82.12
10460;BME280;54412;51.206;6.888;2023-03-07T01:47:52;99200.16;;;5.63;83.60
10460;BME280;54412;51.206;6.888;2023-03-07T01:50:18;99191.13;;;5.85;82.93
10460;BME280;54412;51.206;6.888;2023-03-07T01:52:58;99201.72;;;5.82;83.42
10460;BME280;54412;51.206;6.888;2023-03-07T01:55:32;99200.00;;;5.83;83.01
10460;BME280;54412;51.206;6.888;2023-03-07T01:58:05;99181.59;;;5.67;83.94
10460;BME280;54412;51.206;6.888;2023-03-07T02:00:33;99185.44;;;5.77;83.62
10460;BME280;54412;51.206;6.888;2023-03-07T02:03:23;99180.41;;;5.57;84.38
10460;BME280;54412;51.206;6.888;2023-03-07T02:05:59;99172.00;;;5.68;84.78
10460;BME280;54412;51.206;6.888;2023-03-07T02:08:29;99175.44;;;5.85;83.83
10460;BME280;54412;51.206;6.888;2023-03-07T02:10:55;99168.88;;;5.61;83.86
10460;BME280;54412;51.206;6.888;2023-03-07T02:13:21;99171.50;;;5.77;84.33
10460;BME280;54412;51.206;6.888;2023-03-07T02:15:47;99168.53;;;5.67;84.22
10460;BME280;54412;51.206;6.888;2023-03-07T02:18:19;99173.09;;;5.79;84.24
10460;BME280;54412;51.206;6.888;2023-03-07T02:21:07;99165.81;;;5.69;84.03
10460;BME280;54412;51.206;6.888;2023-03-07T02:24:13;99156.88;;;5.57;85.02
10460;BME280;54412;51.206;6.888;2023-03-07T02:26:48;99158.81;;;5.54;84.94
10460;BME280;54412;51.206;6.888;2023-03-07T02:29:15;99149.41;;;5.82;84.67
10460;BME280;54412;51.206;6.888;2023-03-07T02:31:41;99150.19;;;5.84;83.82
10460;BME280;54412;51.206;6.888;2023-03-07T02:34:25;99142.75;;;5.92;83.64
10460;BME280;54412;51.206;6.888;2023-03-07T02:36:58;99142.56;;;5.80;83.92
10460;BME280;54412;51.206;6.888;2023-03-07T02:39:27;99133.81;;;5.81;83.97
10460;BME280;54412;51.206;6.888;2023-03-07T02:41:57;99135.63;;;6.11;83.47
10460;BME280;54412;51.206;6.888;2023-03-07T02:44:23;99145.66;;;5.88;83.71
10460;BME280;54412;51.206;6.888;2023-03-07T02:46:49;99135.31;;;5.85;84.16
10460;BME280;54412;51.206;6.888;2023-03-07T02:49:15;99129.88;;;5.72;84.45
10460;BME280;54412;51.206;6.888;2023-03-07T02:51:42;99136.81;;;5.73;84.33
10460;BME280;54412;51.206;6.888;2023-03-07T02:54:08;99126.19;;;5.76;84.48
10460;BME280;54412;51.206;6.888;2023-03-07T02:56:33;99138.72;;;5.87;83.67
10460;BME280;54412;51.206;6.888;2023-03-07T02:58:59;99124.13;;;5.83;84.18
10460;BME280;54412;51.206;6.888;2023-03-07T03:01:25;99125.34;;;5.76;84.20
10460;BME280;54412;51.206;6.888;2023-03-07T03:03:51;99133.25;;;5.74;84.76
10460;BME280;54412;51.206;6.888;2023-03-07T03:06:16;99121.63;;;5.80;84.56
10460;BME280;54412;51.206;6.888;2023-03-07T03:08:42;99121.91;;;5.75;84.72
10460;BME280;54412;51.206;6.888;2023-03-07T03:11:08;99123.38;;;5.79;84.71
10460;BME280;54412;51.206;6.888;2023-03-07T03:13:33;99120.25;;;5.90;84.01
10460;BME280;54412;51.206;6.888;2023-03-07T03:15:59;99124.03;;;6.00;84.13
10460;BME280;54412;51.206;6.888;2023-03-07T03:18:29;99123.38;;;5.96;83.63
10460;BME280;54412;51.206;6.888;2023-03-07T03:20:55;99106.81;;;6.11;83.42
10460;BME280;54412;51.206;6.888;2023-03-07T03:23:22;99108.44;;;5.98;84.07
10460;BME280;54412;51.206;6.888;2023-03-07T03:26:04;99108.81;;;6.06;84.37
10460;BME280;54412;51.206;6.888;2023-03-07T03:28:34;99117.44;;;6.08;83.88
10460;BME280;54412;51.206;6.888;2023-03-07T03:31:08;99109.84;;;5.88;84.32
10460;BME280;54412;51.206;6.888;2023-03-07T03:33:35;99105.94;;;5.80;84.68
10460;BME280;54412;51.206;6.888;2023-03-07T03:36:08;99117.13;;;5.99;84.19
10460;BME280;54412;51.206;6.888;2023-03-07T03:38:35;99106.22;;;5.91;84.22
10460;BME280;54412;51.206;6.888;2023-03-07T03:41:05;99101.75;;;5.93;84.39
10460;BME280;54412;51.206;6.888;2023-03-07T03:43:33;99095.53;;;5.95;83.92
10460;BME280;54412;51.206;6.888;2023-03-07T03:45:59;99099.63;;;5.68;83.99
10460;BME280;54412;51.206;6.888;2023-03-07T03:48:25;99089.06;;;5.70;84.79
10460;BME280;54412;51.206;6.888;2023-03-07T03:51:06;99094.88;;;5.75;84.70
10460;BME280;54412;51.206;6.888;2023-03-07T03:53:35;99095.09;;;5.87;84.35
10460;BME280;54412;51.206;6.888;2023-03-07T03:56:11;99090.59;;;5.74;84.34
10460;BME280;54412;51.206;6.888;2023-03-07T03:58:38;99090.31;;;5.78;84.33
10460;BME280;54412;51.206;6.888;2023-03-07T04:01:07;99090.41;;;5.61;84.55
10460;BME280;54412;51.206;6.888;2023-03-07T04:03:39;99088.88;;;5.73;84.17
10460;BME280;54412;51.206;6.888;2023-03-07T04:06:10;99086.53;;;5.68;84.81
10460;BME280;54412;51.206;6.888;2023-03-07T04:08:37;99075.25;;;5.99;83.72
10460;BME280;54412;51.206;6.888;2023-03-07T04:11:04;99070.50;;;6.05;83.35
10460;BME280;54412;51.206;6.888;2023-03-07T04:13:32;99069.34;;;5.95;82.52
10460;BME280;54412;51.206;6.888;2023-03-07T04:15:58;99062.41;;;5.79;83.48
10460;BME280;54412;51.206;6.888;2023-03-07T04:18:24;99066.97;;;5.91;83.05
10460;BME280;54412;51.206;6.888;2023-03-07T04:20:51;99065.34;;;5.73;83.85
10460;BME280;54412;51.206;6.888;2023-03-07T04:23:21;99059.59;;;5.82;83.79
10460;BME280;54412;51.206;6.888;2023-03-07T04:25:54;99049.47;;;5.60;83.99
10460;BME280;54412;51.206;6.888;2023-03-07T04:28:22;99057.16;;;5.63;84.34
10460;BME280;54412;51.206;6.888;2023-03-07T04:30:49;99058.28;;;5.59;84.12
10460;BME280;54412;51.206;6.888;2023-03-07T04:33:17;99049.75;;;5.56;83.99
10460;BME280;54412;51.206;6.888;2023-03-07T04:35:43;99046.97;;;5.43;84.71
10460;BME280;54412;51.206;6.888;2023-03-07T04:38:11;99047.19;;;5.54;85.04
10460;BME280;54412;51.206;6.888;2023-03-07T04:40:37;99041.56;;;5.46;84.62
10460;BME280;54412;51.206;6.888;2023-03-07T04:43:03;99046.00;;;5.60;84.60
10460;BME280;54412;51.206;6.888;2023-03-07T04:45:32;99033.88;;;5.59;83.84
10460;BME280;54412;51.206;6.888;2023-03-07T04:47:59;99033.28;;;5.69;83.79
10460;BME280;54412;51.206;6.888;2023-03-07T04:50:25;99036.91;;;5.82;83.11
10460;BME280;54412;51.206;6.888;2023-03-07T04:52:50;99031.53;;;5.70;83.10
10460;BME280;54412;51.206;6.888;2023-03-07T04:55:16;99024.19;;;5.61;84.38
10460;BME280;54412;51.206;6.888;2023-03-07T04:57:42;99024.16;;;5.76;83.67
10460;BME280;54412;51.206;6.888;2023-03-07T05:00:08;99030.50;;;5.72;83.13
10460;BME280;54412;51.206;6.888;2023-03-07T05:02:37;99027.97;;;5.71;83.12
10460;BME280;54412;51.206;6.888;2023-03-07T05:05:04;99025.19;;;5.58;83.76
10460;BME280;54412;51.206;6.888;2023-03-07T05:07:30;99028.41;;;5.48;83.99
10460;BME280;54412;51.206;6.888;2023-03-07T05:09:56;99018.88;;;5.47;84.17
10460;BME280;54412;51.206;6.888;2023-03-07T05:12:23;99018.97;;;5.61;84.59
10460;BME280;54412;51.206;6.888;2023-03-07T05:14:49;99015.31;;;5.63;83.67
10460;BME280;54412;51.206;6.888;2023-03-07T05:17:15;99017.25;;;5.60;84.09
10460;BME280;54412;51.206;6.888;2023-03-07T05:19:41;99014.22;;;5.52;83.82
10460;BME280;54412;51.206;6.888;2023-03-07T05:22:07;99017.88;;;5.65;83.92
10460;BME280;54412;51.206;6.888;2023-03-07T05:24:34;99007.81;;;5.73;84.02
10460;BME280;54412;51.206;6.888;2023-03-07T05:26:59;99006.13;;;5.72;84.25
10460;BME280;54412;51.206;6.888;2023-03-07T05:29:25;98997.84;;;5.64;84.36
10460;BME280;54412;51.206;6.888;2023-03-07T05:31:51;99003.09;;;5.64;83.75
10460;BME280;54412;51.206;6.888;2023-03-07T05:34:16;99001.91;;;5.54;84.59
10460;BME280;54412;51.206;6.888;2023-03-07T05:36:42;99003.00;;;5.65;84.54
10460;BME280;54412;51.206;6.888;2023-03-07T05:39:09;98998.38;;;5.86;83.51
10460;BME280;54412;51.206;6.888;2023-03-07T05:41:34;99001.66;;;5.74;83.87
10460;BME280;54412;51.206;6.888;2023-03-07T05:44:00;98999.72;;;5.93;84.96
10460;BME280;54412;51.206;6.888;2023-03-07T05:46:26;98995.47;;;5.75;83.43
10460;BME280;54412;51.206;6.888;2023-03-07T05:48:51;98995.47;;;5.90;84.40
10460;BME280;54412;51.206;6.888;2023-03-07T05:51:17;98994.72;;;5.88;83.53
10460;BME280;54412;51.206;6.888;2023-03-07T05:53:43;98994.06;;;5.85;83.62
10460;BME280;54412;51.206;6.888;2023-03-07T05:56:11;98994.31;;;5.80;83.33
10460;BME280;54412;51.206;6.888;2023-03-07T05:58:37;98995.16;;;5.96;84.79
10460;BME280;54412;51.206;6.888;2023-03-07T06:01:03;98996.00;;;5.97;83.23
10460;BME280;54412;51.206;6.888;2023-03-07T06:03:29;98994.47;;;5.93;83.84
10460;BME280;54412;51.206;6.888;2023-03-07T06:05:56;98989.72;;;5.99;82.78
10460;BME280;54412;51.206;6.888;2023-03-07T06:08:22;98996.16;;;5.78;83.27
10460;BME280;54412;51.206;6.888;2023-03-07T06:10:49;98989.56;;;6.02;83.50
10460;BME280;54412;51.206;6.888;2023-03-07T06:13:20;98988.00;;;6.14;83.29
10460;BME280;54412;51.206;6.888;2023-03-07T06:15:50;98986.75;;;6.35;81.53
10460;BME280;54412;51.206;6.888;2023-03-07T06:18:16;98988.00;;;6.44;81.76
10460;BME280;54412;51.206;6.888;2023-03-07T06:20:42;98983.03;;;6.39;81.37
10460;BME280;54412;51.206;6.888;2023-03-07T06:23:08;98990.00;;;6.24;82.07
10460;BME280;54412;51.206;6.888;2023-03-07T06:25:34;98977.75;;;6.25;81.60
10460;BME280;54412;51.206;6.888;2023-03-07T06:28:00;98978.34;;;6.00;81.80
10460;BME280;54412;51.206;6.888;2023-03-07T06:30:26;98979.38;;;5.82;83.42
10460;BME280;54412;51.206;6.888;2023-03-07T06:32:53;98977.84;;;5.94;83.19
10460;BME280;54412;51.206;6.888;2023-03-07T06:35:18;98970.84;;;5.94;82.99
10460;BME280;54412;51.206;6.888;2023-03-07T06:37:44;98970.25;;;5.89;83.28
10460;BME280;54412;51.206;6.888;2023-03-07T06:40:11;98976.66;;;5.99;83.06
10460;BME280;54412;51.206;6.888;2023-03-07T06:42:37;98975.22;;;5.94;83.34
10460;BME280;54412;51.206;6.888;2023-03-07T06:45:04;98974.75;;;6.17;82.91
10460;BME280;54412;51.206;6.888;2023-03-07T06:47:30;98972.00;;;6.04;83.30
10460;BME280;54412;51.206;6.888;2023-03-07T06:49:56;98971.50;;;5.82;83.14
10460;BME280;54412;51.206;6.888;2023-03-07T06:52:22;98967.44;;;6.08;82.96
10460;BME280;54412;51.206;6.888;2023-03-07T06:54:47;98966.50;;;6.09;82.92
10460;BME280;54412;51.206;6.888;2023-03-07T06:57:13;98962.28;;;6.06;82.58
10460;BME280;54412;51.206;6.888;2023-03-07T06:59:39;98965.94;;;5.88;83.79
10460;BME280;54412;51.206;6.888;2023-03-07T07:02:05;98965.94;;;6.04;83.01
10460;BME280;54412;51.206;6.888;2023-03-07T07:04:32;98961.38;;;6.21;82.48
10460;BME280;54412;51.206;6.888;2023-03-07T07:06:58;98964.66;;;6.25;81.71
10460;BME280;54412;51.206;6.888;2023-03-07T07:09:23;98963.19;;;6.35;81.51
10460;BME280;54412;51.206;6.888;2023-03-07T07:11:49;98958.75;;;6.51;80.79
10460;BME280;54412;51.206;6.888;2023-03-07T07:14:15;98952.44;;;6.40;81.68
10460;BME280;54412;51.206;6.888;2023-03-07T07:16:41;98952.06;;;6.31;81.40
10460;BME280;54412;51.206;6.888;2023-03-07T07:19:08;98957.13;;;6.34;81.02
10460;BME280;54412;51.206;6.888;2023-03-07T07:21:34;98960.50;;;6.37;80.80
10460;BME280;54412;51.206;6.888;2023-03-07T07:24:00;98948.78;;;6.28;81.35
10460;BME280;54412;51.206;6.888;2023-03-07T07:26:26;98948.31;;;6.21;80.93
10460;BME280;54412;51.206;6.888;2023-03-07T07:28:52;98943.91;;;6.22;81.47
10460;BME280;54412;51.206;6.888;2023-03-07T07:31:18;98954.22;;;5.95;81.63
10460;BME280;54412;51.206;6.888;2023-03-07T07:33:43;98953.69;;;6.04;82.29
10460;BME280;54412;51.206;6.888;2023-03-07T07:36:10;98960.06;;;6.14;82.30
10460;BME280;54412;51.206;6.888;2023-03-07T07:38:36;98951.00;;;5.90;82.01
10460;BME280;54412;51.206;6.888;2023-03-07T07:41:02;98954.47;;;5.91;82.07
10460;BME280;54412;51.206;6.888;2023-03-07T07:43:28;98957.00;;;5.92;82.12
10460;BME280;54412;51.206;6.888;2023-03-07T07:45:53;98946.78;;;6.17;82.01
10460;BME280;54412;51.206;6.888;2023-03-07T07:48:19;98956.78;;;6.11;82.22
10460;BME280;54412;51.206;6.888;2023-03-07T07:50:45;98973.06;;;6.16;82.05
10460;BME280;54412;51.206;6.888;2023-03-07T07:53:11;98958.38;;;6.13;81.85
10460;BME280;54412;51.206;6.888;2023-03-07T07:55:38;98956.13;;;6.07;82.07
10460;BME280;54412;51.206;6.888;2023-03-07T07:58:06;98953.13;;;6.13;82.35
10460;BME280;54412;51.206;6.888;2023-03-07T08:00:32;98952.47;;;6.10;81.08
10460;BME280;54412;51.206;6.888;2023-03-07T08:02:58;98961.38;;;5.76;82.66
10460;BME280;54412;51.206;6.888;2023-03-07T08:05:24;98956.75;;;5.97;83.01
10460;BME280;54412;51.206;6.888;2023-03-07T08:07:49;98950.53;;;5.84;84.02
10460;BME280;54412;51.206;6.888;2023-03-07T08:10:17;98959.63;;;5.92;82.43
10460;BME280;54412;51.206;6.888;2023-03-07T08:12:47;98955.41;;;5.74;83.43
10460;BME280;54412;51.206;6.888;2023-03-07T08:15:16;98963.78;;;6.10;83.33
10460;BME280;54412;51.206;6.888;2023-03-07T08:17:43;98955.66;;;5.85;83.64
10460;BME280;54412;51.206;6.888;2023-03-07T08:20:09;98955.19;;;6.08;83.09
10460;BME280;54412;51.206;6.888;2023-03-07T08:22:36;98954.19;;;6.25;82.30
10460;BME280;54412;51.206;6.888;2023-03-07T08:25:06;98943.59;;;6.12;82.56
10460;BME280;54412;51.206;6.888;2023-03-07T08:27:32;98952.75;;;6.05;82.27
10460;BME280;54412;51.206;6.888;2023-03-07T08:29:59;98941.41;;;6.20;81.38
10460;BME280;54412;51.206;6.888;2023-03-07T08:32:26;98951.25;;;6.15;82.30
10460;BME280;54412;51.206;6.888;2023-03-07T08:34:52;98945.88;;;6.18;82.25
10460;BME280;54412;51.206;6.888;2023-03-07T08:37:18;98956.91;;;6.23;82.06
10460;BME280;54412;51.206;6.888;2023-03-07T08:39:44;98954.75;;;6.16;81.62
10460;BME280;54412;51.206;6.888;2023-03-07T08:42:10;98961.06;;;6.12;82.14
10460;BME280;54412;51.206;6.888;2023-03-07T08:44:35;98945.44;;;5.96;82.05
10460;BME280;54412;51.206;6.888;2023-03-07T08:47:01;98945.75;;;6.06;81.66
10460;BME280;54412;51.206;6.888;2023-03-07T08:49:26;98942.75;;;6.12;81.79
10460;BME280;54412;51.206;6.888;2023-03-07T08:51:52;98948.31;;;6.21;81.60
10460;BME280;54412;51.206;6.888;2023-03-07T08:54:21;98960.28;;;6.25;81.55
10460;BME280;54412;51.206;6.888;2023-03-07T08:56:46;98943.13;;;6.06;82.05
10460;BME280;54412;51.206;6.888;2023-03-07T08:59:12;98931.78;;;5.91;82.76
10460;BME280;54412;51.206;6.888;2023-03-07T09:01:38;98936.06;;;5.92;82.86
10460;BME280;54412;51.206;6.888;2023-03-07T09:04:03;98940.78;;;6.01;83.35
10460;BME280;54412;51.206;6.888;2023-03-07T09:06:29;98945.47;;;6.10;82.82
10460;BME280;54412;51.206;6.888;2023-03-07T09:08:55;98943.28;;;6.03;82.82
10460;BME280;54412;51.206;6.888;2023-03-07T09:11:21;98943.47;;;6.00;83.34
10460;BME280;54412;51.206;6.888;2023-03-07T09:13:47;98947.34;;;6.22;82.74
10460;BME280;54412;51.206;6.888;2023-03-07T09:16:13;98950.59;;;6.12;83.10
10460;BME280;54412;51.206;6.888;2023-03-07T09:18:38;98954.94;;;6.13;83.14
10460;BME280;54412;51.206;6.888;2023-03-07T09:21:05;98949.66;;;5.99;83.67
10460;BME280;54412;51.206;6.888;2023-03-07T09:23:31;98955.56;;;5.87;83.87
10460;BME280;54412;51.206;6.888;2023-03-07T09:26:01;98955.47;;;6.04;83.93
10460;BME280;54412;51.206;6.888;2023-03-07T09:28:27;98966.44;;;5.79;84.34
10460;BME280;54412;51.206;6.888;2023-03-07T09:30:53;98970.25;;;5.89;84.49
10460;BME280;54412;51.206;6.888;2023-03-07T09:33:19;98961.34;;;6.07;84.73
10460;BME280;54412;51.206;6.888;2023-03-07T09:35:45;98966.81;;;6.18;84.09
10460;BME280;54412;51.206;6.888;2023-03-07T09:38:10;98969.88;;;6.11;84.15
10460;BME280;54412;51.206;6.888;2023-03-07T09:40:37;98958.28;;;5.85;84.31
10460;BME280;54412;51.206;6.888;2023-03-07T09:43:42;98955.19;;;6.08;85.00
10460;BME280;54412;51.206;6.888;2023-03-07T09:51:58;98957.78;;;6.08;85.63
10460;BME280;54412;51.206;6.888;2023-03-07T09:54:38;98953.97;;;6.14;85.12
10460;BME280;54412;51.206;6.888;2023-03-07T09:57:17;98951.78;;;6.22;84.99
10460;BME280;54412;51.206;6.888;2023-03-07T10:00:17;98959.72;;;6.20;84.81
10460;BME280;54412;51.206;6.888;2023-03-07T10:02:54;98956.22;;;6.06;85.57
10460;BME280;54412;51.206;6.888;2023-03-07T10:05:37;98975.03;;;6.26;85.23
10460;BME280;54412;51.206;6.888;2023-03-07T10:08:04;98974.06;;;6.13;83.61
10460;BME280;54412;51.206;6.888;2023-03-07T10:10:41;98984.72;;;6.10;82.85
10460;BME280;54412;51.206;6.888;2023-03-07T10:16:05;98984.88;;;5.93;81.52
10460;BME280;54412;51.206;6.888;2023-03-07T10:21:43;98987.63;;;5.90;82.17
10460;BME280;54412;51.206;6.888;2023-03-07T10:27:14;98997.75;;;5.81;81.49
10460;BME280;54412;51.206;6.888;2023-03-07T10:29:49;98997.91;;;5.78;80.97
10460;BME280;54412;51.206;6.888;2023-03-07T10:32:45;98996.50;;;5.72;81.33
10460;BME280;54412;51.206;6.888;2023-03-07T10:35:16;98995.94;;;5.83;80.07
10460;BME280;54412;51.206;6.888;2023-03-07T10:37:54;98992.38;;;5.68;81.21
10460;BME280;54412;51.206;6.888;2023-03-07T10:40:39;99007.56;;;5.77;80.30
10460;BME280;54412;51.206;6.888;2023-03-07T10:43:24;99011.00;;;5.78;81.02
10460;BME280;54412;51.206;6.888;2023-03-07T10:46:24;99009.34;;;5.61;81.44
10460;BME280;54412;51.206;6.888;2023-03-07T10:49:14;99007.72;;;5.74;81.15
10460;BME280;54412;51.206;6.888;2023-03-07T10:52:18;99003.78;;;5.83;81.52
10460;BME280;54412;51.206;6.888;2023-03-07T10:54:49;99007.06;;;5.86;80.27
10460;BME280;54412;51.206;6.888;2023-03-07T10:57:17;99006.19;;;5.70;82.13
10460;BME280;54412;51.206;6.888;2023-03-07T10:59:47;99009.75;;;5.85;81.20
10460;BME280;54412;51.206;6.888;2023-03-07T11:02:34;99010.66;;;5.99;79.83
10460;BME280;54412;51.206;6.888;2023-03-07T11:05:20;99013.38;;;5.82;80.22
10460;BME280;54412;51.206;6.888;2023-03-07T11:07:51;99013.44;;;5.65;79.57
10460;BME280;54412;51.206;6.888;2023-03-07T11:10:46;99016.25;;;5.62;80.91
10460;BME280;54412;51.206;6.888;2023-03-07T11:13:18;99023.16;;;5.94;80.48
10460;BME280;54412;51.206;6.888;2023-03-07T11:15:45;99024.34;;;6.04;79.37
10460;BME280;54412;51.206;6.888;2023-03-07T11:18:42;99024.44;;;5.87;79.22
10460;BME280;54412;51.206;6.888;2023-03-07T11:21:32;99020.81;;;5.90;79.30
10460;BME280;54412;51.206;6.888;2023-03-07T11:24:30;99028.91;;;5.70;79.44
10460;BME280;54412;51.206;6.888;2023-03-07T11:26:58;99021.97;;;6.00;78.75
10460;BME280;54412;51.206;6.888;2023-03-07T11:29:25;99020.28;;;5.68;79.75
10460;BME280;54412;51.206;6.888;2023-03-07T11:32:04;99020.22;;;5.85;78.33
10460;BME280;54412;51.206;6.888;2023-03-07T11:34:52;99021.06;;;5.70;80.02
10460;BME280;54412;51.206;6.888;2023-03-07T11:37:33;99017.34;;;5.74;78.25
10460;BME280;54412;51.206;6.888;2023-03-07T11:40:20;99022.69;;;5.88;77.81
10460;BME280;54412;51.206;6.888;2023-03-07T11:43:19;99020.75;;;5.91;77.98
10460;BME280;54412;51.206;6.888;2023-03-07T11:46:09;99014.78;;;5.72;78.39
10460;BME280;54412;51.206;6.888;2023-03-07T11:51:46;99018.25;;;5.73;78.34
10460;BME280;54412;51.206;6.888;2023-03-07T11:57:56;99016.31;;;5.45;78.65
10460;BME280;54412;51.206;6.888;2023-03-07T12:01:06;99014.91;;;5.55;78.70
10460;BME280;54412;51.206;6.888;2023-03-07T12:03:59;99020.47;;;5.33;79.80
10460;BME280;54412;51.206;6.888;2023-03-07T12:12:02;99020.88;;;5.26;79.54
10460;BME280;54412;51.206;6.888;2023-03-07T12:24:14;99012.53;;;5.66;77.96
10460;BME280;54412;51.206;6.888;2023-03-07T12:27:10;99013.19;;;5.54;78.50
10460;BME280;54412;51.206;6.888;2023-03-07T12:29:43;99013.06;;;5.57;79.35
10460;BME280;54412;51.206;6.888;2023-03-07T12:32:32;99010.16;;;5.62;78.97
10460;BME280;54412;51.206;6.888;2023-03-07T12:35:22;99008.38;;;5.78;79.43
10460;BME280;54412;51.206;6.888;2023-03-07T12:38:02;99017.25;;;5.91;77.49
10460;BME280;54412;51.206;6.888;2023-03-07T12:40:45;99008.47;;;5.76;77.92
10460;BME280;54412;51.206;6.888;2023-03-07T12:43:18;99002.25;;;5.79;77.89
10460;BME280;54412;51.206;6.888;2023-03-07T12:46:23;98999.94;;;5.73;77.69
10460;BME280;54412;51.206;6.888;2023-03-07T12:49:11;98996.63;;;5.86;77.73
10460;BME280;54412;51.206;6.888;2023-03-07T12:51:46;98996.25;;;5.92;77.29
10460;BME280;54412;51.206;6.888;2023-03-07T12:54:36;98993.91;;;5.57;78.49
10460;BME280;54412;51.206;6.888;2023-03-07T12:57:21;98996.84;;;5.66;78.93
10460;BME280;54412;51.206;6.888;2023-03-07T12:59:49;98992.38;;;5.68;79.46
10460;BME280;54412;51.206;6.888;2023-03-07T13:02:24;99002.16;;;5.80;77.58
10460;BME280;54412;51.206;6.888;2023-03-07T13:04:51;98997.53;;;5.85;77.91
10460;BME280;54412;51.206;6.888;2023-03-07T13:07:27;99000.13;;;5.70;77.51
10460;BME280;54412;51.206;6.888;2023-03-07T13:09:57;99007.38;;;5.96;76.94
10460;BME280;54412;51.206;6.888;2023-03-07T13:25:48;99001.72;;;6.03;76.22
10460;BME280;54412;51.206;6.888;2023-03-07T13:28:42;99004.81;;;6.10;75.90
10460;BME280;54412;51.206;6.888;2023-03-07T13:33:41;99006.06;;;6.18;76.18
10460;BME280;54412;51.206;6.888;2023-03-07T13:36:37;99003.19;;;6.23;75.43
10460;BME280;54412;51.206;6.888;2023-03-07T13:39:38;99003.41;;;6.04;75.52
10460;BME280;54412;51.206;6.888;2023-03-07T13:48:13;99002.56;;;6.04;74.82
10460;BME280;54412;51.206;6.888;2023-03-07T13:58:58;99001.75;;;5.88;75.11
10460;BME280;54412;51.206;6.888;2023-03-07T14:01:30;98997.91;;;5.78;75.96
10460;BME280;54412;51.206;6.888;2023-03-07T14:04:39;98999.03;;;5.74;76.40
10460;BME280;54412;51.206;6.888;2023-03-07T14:10:23;99001.81;;;5.71;76.38
10460;BME280;54412;51.206;6.888;2023-03-07T14:16:12;99017.78;;;5.66;77.50
10460;BME280;54412;51.206;6.888;2023-03-07T14:21:48;99021.56;;;5.92;75.72
10460;BME280;54412;51.206;6.888;2023-03-07T14:27:17;99027.47;;;5.64;76.26
10460;BME280;54412;51.206;6.888;2023-03-07T14:29:54;99023.59;;;5.71;76.36
10460;BME280;54412;51.206;6.888;2023-03-07T14:32:31;99031.59;;;5.37;76.65
10460;BME280;54412;51.206;6.888;2023-03-07T14:34:57;99025.38;;;5.40;77.24
10460;BME280;54412;51.206;6.888;2023-03-07T14:37:30;99034.69;;;5.28;76.81
10460;BME280;54412;51.206;6.888;2023-03-07T14:43:19;99044.13;;;5.15;76.50
10460;BME280;54412;51.206;6.888;2023-03-07T14:46:04;99040.59;;;5.16;77.31
10460;BME280;54412;51.206;6.888;2023-03-07T14:51:27;99048.34;;;5.17;77.12
10460;BME280;54412;51.206;6.888;2023-03-07T14:53:56;99051.19;;;4.80;77.83
10460;BME280;54412;51.206;6.888;2023-03-07T14:56:29;99050.00;;;4.86;77.97